createdAt,value
2022-08-20T00:01:09.941Z,99926.31
2022-08-20T00:03:53.209Z,99939.94
2022-08-20T00:06:30.139Z,99928.25
2022-08-20T00:09:04.861Z,99898.44
2022-08-20T00:11:41.820Z,99896.91
2022-08-20T00:14:17.711Z,99901.50
2022-08-20T00:16:54.927Z,99890.94
2022-08-20T00:19:35.320Z,99900.09
2022-08-20T00:22:09.826Z,99899.72
2022-08-20T00:24:44.760Z,99880.28
2022-08-20T00:27:18.840Z,99861.06
2022-08-20T00:29:55.379Z,99847.31
2022-08-20T00:32:29.698Z,99844.25
2022-08-20T00:35:04.289Z,99854.59
2022-08-20T00:37:38.487Z,99843.94
2022-08-20T00:40:22.211Z,99828.50
2022-08-20T00:43:02.536Z,99821.00
2022-08-20T00:45:38.304Z,99826.31
2022-08-20T00:48:12.451Z,99826.63
2022-08-20T00:50:46.923Z,99823.25
2022-08-20T00:53:23.499Z,99802.50
2022-08-20T00:55:58.358Z,99794.84
2022-08-20T00:58:33.364Z,99787.84
2022-08-20T01:01:10.753Z,99789.19
2022-08-20T02:59:36.878Z,99875.28
2022-08-20T07:05:16.456Z,100095.97
2022-08-20T07:07:51.216Z,100102.22
2022-08-20T07:10:26.122Z,100092.22
2022-08-20T07:13:00.531Z,100104.16
2022-08-20T07:15:34.820Z,100115.44
2022-08-20T07:18:12.367Z,100122.34
2022-08-20T07:20:47.959Z,100120.09
2022-08-20T07:23:22.407Z,100114.78
2022-08-20T07:25:56.577Z,100109.00
2022-08-20T07:28:32.520Z,100083.75
2022-08-20T07:31:24.408Z,100050.66
2022-08-20T07:33:58.888Z,100037.03
2022-08-20T07:36:35.612Z,100029.09
2022-08-20T07:39:10.418Z,100008.53
2022-08-20T07:41:49.017Z,100007.66
2022-08-20T07:44:31.443Z,100013.87
2022-08-20T07:47:06.572Z,99997.34
2022-08-20T07:49:41.635Z,99970.63
2022-08-20T07:52:17.790Z,99944.34
2022-08-20T07:54:52.200Z,99925.59
2022-08-20T07:57:26.433Z,99916.69
2022-08-20T08:00:00.959Z,99929.41
2022-08-20T08:02:35.318Z,99923.84
2022-08-20T08:05:10.781Z,99927.66
2022-08-20T08:07:47.099Z,99924.56
2022-08-20T08:10:24.489Z,99931.50
2022-08-20T08:13:02.059Z,99929.69
2022-08-20T08:15:43.048Z,99925.03
2022-08-20T08:18:22.223Z,99918.56
2022-08-20T08:20:57.973Z,99921.53
2022-08-20T08:23:34.765Z,99922.44
2022-08-20T08:26:09.168Z,99915.06
2022-08-20T08:28:50.891Z,99920.91
2022-08-20T08:31:26.002Z,99932.53
2022-08-20T08:34:00.803Z,99923.59
2022-08-20T08:36:35.406Z,99929.56
2022-08-20T08:39:12.172Z,99927.78
2022-08-20T08:41:49.971Z,99925.00
2022-08-20T08:44:27.406Z,99932.50
2022-08-20T08:47:04.624Z,99926.13
2022-08-20T08:49:38.816Z,99928.78
2022-08-20T08:52:18.939Z,99932.50
2022-08-20T08:54:59.376Z,99938.66
2022-08-20T08:57:34.433Z,99943.56
2022-08-20T09:00:14.848Z,99948.94
2022-08-20T09:03:00.128Z,99948.84
2022-08-20T09:05:41.367Z,99950.28
2022-08-20T09:08:19.527Z,99953.78
2022-08-20T09:10:55.652Z,99952.09
2022-08-20T09:13:30.132Z,99958.19
2022-08-20T09:16:04.784Z,99958.53
2022-08-20T09:18:39.731Z,99952.97
2022-08-20T09:21:14.616Z,99954.59
2022-08-20T09:23:49.135Z,99944.97
2022-08-20T09:26:27.296Z,99948.09
2022-08-20T09:29:03.873Z,99955.06
2022-08-20T09:31:38.971Z,99971.78
2022-08-20T09:34:13.889Z,99971.44
2022-08-20T09:36:48.042Z,99971.66
2022-08-20T09:39:22.588Z,99960.38
2022-08-20T09:42:08.179Z,99954.06
2022-08-20T09:44:43.116Z,99963.25
2022-08-20T09:47:17.868Z,99973.22
2022-08-20T09:49:52.610Z,99975.41
2022-08-20T09:52:28.740Z,99997.91
2022-08-20T09:55:08.704Z,99993.69
2022-08-20T09:57:52.302Z,99996.84
2022-08-20T10:00:27.050Z,100002.41
2022-08-20T10:03:03.404Z,99988.94
2022-08-20T10:05:37.541Z,99994.63
2022-08-20T10:08:13.032Z,99999.25
2022-08-20T10:10:47.179Z,100003.69
2022-08-20T10:13:22.996Z,99997.25
2022-08-20T10:15:57.961Z,99996.28
2022-08-20T10:18:32.426Z,99997.22
2022-08-20T10:21:11.172Z,99989.09
2022-08-20T10:23:45.661Z,99991.94
2022-08-20T10:26:19.798Z,100002.94
2022-08-20T10:28:55.958Z,99989.47
2022-08-20T10:31:30.219Z,99983.16
2022-08-20T10:34:04.912Z,99989.16
2022-08-20T10:36:43.852Z,99982.50
2022-08-20T10:39:18.525Z,99986.06
2022-08-20T10:41:52.624Z,99990.41
2022-08-20T10:44:28.455Z,99993.31
2022-08-20T10:47:15.185Z,99988.69
2022-08-20T10:49:50.995Z,99995.72
2022-08-20T10:52:26.261Z,99980.25
2022-08-20T10:55:00.855Z,99987.41
2022-08-20T10:57:35.183Z,99985.91
2022-08-20T11:00:13.527Z,99984.94
2022-08-20T11:02:48.006Z,99981.00
2022-08-20T11:05:22.436Z,99982.16
2022-08-20T11:07:56.955Z,99984.03
2022-08-20T11:10:34.121Z,99986.47
2022-08-20T11:13:09.184Z,99973.72
2022-08-20T11:15:45.884Z,99964.88
2022-08-20T11:18:20.391Z,99971.97
2022-08-20T11:20:54.848Z,99977.44
2022-08-20T11:23:29.070Z,99976.13
2022-08-20T11:26:05.203Z,99985.87
2022-08-20T11:28:39.625Z,99986.22
2022-08-20T11:31:15.495Z,99984.78
2022-08-20T11:33:49.631Z,99979.31
2022-08-20T11:36:26.481Z,99971.97
2022-08-20T11:39:00.691Z,99973.38
2022-08-20T11:41:35.148Z,99979.16
2022-08-20T11:44:20.828Z,99972.56
2022-08-20T11:47:00.053Z,99968.75
2022-08-20T11:49:35.750Z,99961.31
2022-08-20T11:52:10.312Z,99969.31
2022-08-20T11:54:44.697Z,99955.31
2022-08-20T11:57:23.138Z,99961.78
2022-08-20T11:59:58.956Z,99950.91
2022-08-20T12:02:34.959Z,99953.78
2022-08-20T12:05:12.277Z,99946.31
2022-08-20T12:07:46.700Z,99944.25
2022-08-20T12:10:23.161Z,99949.47
2022-08-20T12:12:57.594Z,99939.94
2022-08-20T12:15:32.226Z,99941.97
2022-08-20T12:18:09.742Z,99950.22
2022-08-20T12:20:44.136Z,99954.19
2022-08-20T12:23:18.296Z,99945.56
2022-08-20T12:25:52.746Z,99939.72
2022-08-20T12:28:26.910Z,99943.47
2022-08-20T12:31:01.399Z,99918.06
2022-08-20T12:33:36.969Z,99923.84
2022-08-20T12:36:11.593Z,99915.38
2022-08-20T12:38:45.716Z,99911.16
2022-08-20T12:41:20.227Z,99906.50
2022-08-20T12:43:54.575Z,99897.88
2022-08-20T12:46:29.036Z,99900.25
2022-08-20T12:49:04.806Z,99894.22
2022-08-20T12:51:39.194Z,99893.19
2022-08-20T12:54:13.339Z,99892.25
2022-08-20T12:56:48.195Z,99878.41
2022-08-20T12:59:26.039Z,99872.03
2022-08-20T13:02:14.142Z,99880.41
2022-08-20T13:04:54.525Z,99888.13
2022-08-20T13:07:30.214Z,99885.09
2022-08-20T13:10:06.565Z,99876.06
2022-08-20T13:12:41.235Z,99864.37
2022-08-20T13:15:15.445Z,99867.00
2022-08-20T13:17:53.027Z,99873.84
2022-08-20T13:20:31.690Z,99874.94
2022-08-20T13:23:09.035Z,99877.75
2022-08-20T13:25:43.199Z,99859.88
2022-08-20T13:28:17.638Z,99858.22
2022-08-20T13:30:52.043Z,99849.69
2022-08-20T13:33:26.727Z,99853.31
2022-08-20T13:36:02.509Z,99852.75
2022-08-20T13:38:37.473Z,99857.56
2022-08-20T13:41:11.734Z,99866.00
2022-08-20T13:43:46.164Z,99857.06
2022-08-20T13:46:20.422Z,99868.06
2022-08-20T13:48:54.899Z,99880.69
2022-08-20T13:51:30.532Z,99883.66
2022-08-20T13:54:05.481Z,99869.16
2022-08-20T13:56:44.887Z,99862.19
2022-08-20T13:59:21.207Z,99858.09
2022-08-20T14:01:55.368Z,99864.44
2022-08-20T14:04:29.979Z,99873.81
2022-08-20T14:07:13.165Z,99879.97
2022-08-20T14:09:50.412Z,99881.13
2022-08-20T14:12:25.485Z,99877.63
2022-08-20T14:14:59.927Z,99879.63
2022-08-20T14:17:36.724Z,99865.81
2022-08-20T14:20:14.777Z,99867.69
2022-08-20T14:22:50.612Z,99867.19
2022-08-20T14:25:26.554Z,99848.09
2022-08-20T14:28:09.908Z,99844.72
2022-08-20T14:30:44.428Z,99837.06
2022-08-20T14:33:18.688Z,99838.47
2022-08-20T14:35:53.772Z,99824.44
2022-08-20T14:38:29.516Z,99815.25
2022-08-20T14:41:03.976Z,99820.66
2022-08-20T14:43:38.168Z,99826.13
2022-08-20T14:46:13.692Z,99834.59
2022-08-20T14:48:53.273Z,99833.66
2022-08-20T14:51:28.041Z,99837.59
2022-08-20T14:54:03.653Z,99832.47
2022-08-20T14:56:38.367Z,99833.50
2022-08-20T14:59:12.883Z,99835.81
2022-08-20T15:01:47.361Z,99844.91
2022-08-20T15:04:21.571Z,99845.59
2022-08-20T15:06:55.993Z,99842.53
2022-08-20T15:09:37.930Z,99844.19
2022-08-20T15:12:12.356Z,99846.94
2022-08-20T15:14:47.989Z,99842.38
2022-08-20T15:17:25.858Z,99842.78
2022-08-20T15:20:02.992Z,99844.03
2022-08-20T15:22:37.551Z,99844.16
2022-08-20T15:25:16.615Z,99841.87
2022-08-20T15:27:51.923Z,99845.88
2022-08-20T15:30:26.393Z,99847.69
2022-08-20T15:33:01.343Z,99849.53
2022-08-20T15:35:36.172Z,99856.59
2022-08-20T15:38:10.627Z,99852.34
2022-08-20T15:40:46.615Z,99858.72
2022-08-20T15:43:21.065Z,99862.50
2022-08-20T15:45:55.689Z,99859.28
2022-08-20T15:48:34.579Z,99865.38
2022-08-20T15:51:22.092Z,99865.66
2022-08-20T15:54:00.446Z,99865.72
2022-08-20T15:56:50.757Z,99863.28
2022-08-20T15:59:48.860Z,99871.19
2022-08-20T16:02:46.662Z,99863.06
2022-08-20T16:05:29.046Z,99865.09
2022-08-20T16:08:15.448Z,99875.19
2022-08-20T16:11:01.930Z,99871.13
2022-08-20T16:13:40.469Z,99886.25
2022-08-20T16:16:19.239Z,99884.13
2022-08-20T16:18:55.279Z,99890.94
2022-08-20T16:21:32.801Z,99895.16
2022-08-20T16:24:08.587Z,99904.16
2022-08-20T16:27:02.730Z,99899.34
2022-08-20T16:29:49.775Z,99898.38
2022-08-20T16:32:35.881Z,99899.25
2022-08-20T16:35:29.860Z,99904.63
2022-08-20T16:38:21.019Z,99914.00
2022-08-20T16:41:00.894Z,99913.34
2022-08-20T16:43:38.280Z,99915.59
2022-08-20T16:46:19.729Z,99913.00
2022-08-20T16:48:58.244Z,99926.09
2022-08-20T16:51:37.724Z,99920.09
2022-08-20T16:54:13.624Z,99923.03
2022-08-20T16:56:50.230Z,99918.94
2022-08-20T16:59:28.324Z,99922.88
2022-08-20T17:02:10.093Z,99921.38
2022-08-20T17:04:50.496Z,99921.03
2022-08-20T17:07:46.219Z,99917.31
2022-08-20T17:10:24.373Z,99913.78
2022-08-20T17:13:01.653Z,99913.38
2022-08-20T17:15:37.364Z,99912.41
2022-08-20T17:18:22.100Z,99904.06
2022-08-20T17:21:01.822Z,99901.50
2022-08-20T17:23:54.610Z,99898.84
2022-08-20T17:26:35.252Z,99910.16
2022-08-20T17:29:14.965Z,99918.94
2022-08-20T17:31:50.495Z,99918.00
2022-08-20T17:34:28.637Z,99915.38
2022-08-20T17:37:09.576Z,99919.88
2022-08-20T17:39:48.697Z,99918.56
2022-08-20T17:42:26.006Z,99911.44
2022-08-20T17:45:09.290Z,99912.41
2022-08-20T17:47:45.076Z,99915.06
2022-08-20T17:50:31.046Z,99915.06
2022-08-20T17:53:17.866Z,99910.00
2022-08-20T17:56:00.711Z,99894.25
2022-08-20T17:58:54.386Z,99896.31
2022-08-20T18:01:30.294Z,99900.25
2022-08-20T18:04:05.217Z,99908.31
2022-08-20T18:06:50.238Z,99904.00
2022-08-20T18:09:30.246Z,99903.28
2022-08-20T18:12:33.329Z,99904.22
2022-08-20T18:15:11.798Z,99909.66
2022-08-20T18:18:25.504Z,99914.16
2022-08-20T18:21:27.326Z,99913.41
2022-08-20T18:24:08.123Z,99904.06
2022-08-20T18:26:48.074Z,99899.72
2022-08-20T18:29:27.649Z,99898.41
2022-08-20T18:32:03.583Z,99898.78
2022-08-20T18:34:42.184Z,99904.41
2022-08-20T18:37:25.433Z,99895.59
2022-08-20T18:40:15.536Z,99898.22
2022-08-20T18:42:50.151Z,99903.09
2022-08-20T18:45:33.063Z,99900.28
2022-08-20T18:48:08.469Z,99907.13
2022-08-20T18:50:49.010Z,99920.62
2022-08-20T18:53:33.473Z,99918.38
2022-08-20T18:56:13.674Z,99924.75
2022-08-20T18:58:55.759Z,99923.63
2022-08-20T19:01:35.321Z,99931.13
2022-08-20T19:04:22.572Z,99923.09
2022-08-20T19:07:00.205Z,99922.16
2022-08-20T19:09:53.516Z,99918.97
2022-08-20T19:13:16.346Z,99922.72
2022-08-20T19:15:54.418Z,99921.53
2022-08-20T19:18:35.068Z,99918.66
2022-08-20T19:21:15.773Z,99914.53
2022-08-20T19:23:55.203Z,99913.41
2022-08-20T19:26:32.780Z,99920.25
2022-08-20T19:29:12.313Z,99922.63
2022-08-20T19:31:48.425Z,99908.78
2022-08-20T19:34:25.825Z,99920.03
2022-08-20T19:37:27.938Z,99922.03
2022-08-20T19:39:57.874Z,99919.38
2022-08-20T19:42:37.549Z,99923.84
2022-08-20T19:45:19.879Z,99916.53
2022-08-20T19:48:09.596Z,99923.88
2022-08-20T19:50:51.327Z,99919.53
2022-08-20T19:53:30.667Z,99922.44
2022-08-20T19:56:11.176Z,99921.75
2022-08-20T19:58:46.106Z,99932.87
2022-08-20T20:01:22.851Z,99930.19
2022-08-20T20:04:00.507Z,99926.44
2022-08-20T20:06:38.557Z,99928.12
2022-08-20T20:09:18.425Z,99925.75
2022-08-20T20:11:56.214Z,99925.34
2022-08-20T20:14:33.734Z,99928.34
2022-08-20T20:17:14.768Z,99934.09
2022-08-20T20:19:53.467Z,99931.25
2022-08-20T20:22:29.896Z,99933.25
2022-08-20T20:25:21.517Z,99930.38
2022-08-20T20:27:59.679Z,99930.34
2022-08-20T20:30:35.642Z,99942.16
2022-08-20T20:33:18.415Z,99932.09
2022-08-20T20:36:04.597Z,99934.59
2022-08-20T20:38:56.056Z,99933.03
2022-08-20T20:41:31.269Z,99923.44
2022-08-20T20:44:08.610Z,99919.78
2022-08-20T20:46:47.990Z,99920.81
2022-08-20T20:49:26.728Z,99924.53
2022-08-20T20:52:04.106Z,99922.75
2022-08-20T20:54:42.111Z,99925.97
2022-08-20T20:57:38.405Z,99922.91
2022-08-20T21:00:17.145Z,99920.88
2022-08-20T21:02:51.745Z,99924.28
2022-08-20T21:05:28.856Z,99919.44
2022-08-20T21:08:07.259Z,99916.66
2022-08-20T21:10:43.404Z,99923.09
2022-08-20T21:13:18.000Z,99920.38
2022-08-20T21:15:52.262Z,99920.94
2022-08-20T21:18:26.948Z,99925.91
2022-08-20T21:21:02.594Z,99930.84
2022-08-20T21:23:40.006Z,99932.78
2022-08-20T21:26:16.163Z,99934.75
2022-08-20T21:28:50.641Z,99936.62
2022-08-20T21:31:27.294Z,99930.78
2022-08-20T21:34:02.034Z,99931.41
2022-08-20T21:36:37.925Z,99937.38
2022-08-20T21:39:12.844Z,99922.72
2022-08-20T21:41:47.444Z,99918.25
2022-08-20T21:44:24.738Z,99917.16
2022-08-20T21:47:00.466Z,99924.44
2022-08-20T21:49:34.879Z,99924.37
2022-08-20T21:52:10.419Z,99919.00
2022-08-20T21:54:44.978Z,99921.72
2022-08-20T21:57:21.386Z,99919.47
2022-08-20T21:59:57.349Z,99915.78
2022-08-20T22:02:32.298Z,99911.72
2022-08-20T22:05:07.769Z,99917.19
2022-08-20T22:07:44.698Z,99915.09
2022-08-20T22:10:19.373Z,99921.66
2022-08-20T22:12:53.476Z,99916.31
2022-08-20T22:15:27.905Z,99913.41
2022-08-20T22:18:02.430Z,99916.34
2022-08-20T22:20:37.164Z,99910.50
2022-08-20T22:23:13.504Z,99916.41
2022-08-20T22:25:47.924Z,99914.09
2022-08-20T22:28:22.316Z,99925.72
2022-08-20T22:30:56.945Z,99920.13
2022-08-20T22:33:32.941Z,99916.78
2022-08-20T22:36:08.444Z,99917.13
2022-08-20T22:38:43.998Z,99915.34
2022-08-20T22:41:22.435Z,99922.50
2022-08-20T22:43:57.421Z,99918.16
2022-08-20T22:46:35.392Z,99911.25
2022-08-20T22:49:13.111Z,99919.19
2022-08-20T22:51:47.664Z,99911.03
2022-08-20T22:54:25.095Z,99919.94
2022-08-20T22:56:59.455Z,99921.47
2022-08-20T22:59:33.970Z,99922.31
2022-08-20T23:02:22.062Z,99924.03
2022-08-20T23:04:56.194Z,99924.87
2022-08-20T23:07:30.853Z,99918.44
2022-08-20T23:10:07.225Z,99916.97
2022-08-20T23:12:41.968Z,99919.97
2022-08-20T23:15:16.486Z,99904.00
2022-08-20T23:17:51.526Z,99910.16
2022-08-20T23:20:25.741Z,99902.50
2022-08-20T23:23:00.211Z,99908.50
2022-08-20T23:25:36.626Z,99911.09
2022-08-20T23:28:11.357Z,99904.06
2022-08-20T23:30:45.514Z,99906.19
2022-08-20T23:33:20.571Z,99899.00
2022-08-20T23:35:54.631Z,99907.13
2022-08-20T23:38:29.183Z,99900.97
2022-08-20T23:41:04.716Z,99902.81
2022-08-20T23:43:39.670Z,99896.38
2022-08-20T23:46:14.250Z,99895.63
2022-08-20T23:48:48.684Z,99902.00
2022-08-20T23:51:22.993Z,99895.16
2022-08-20T23:53:57.445Z,99898.28
2022-08-20T23:56:33.006Z,99893.00
2022-08-20T23:59:07.416Z,99900.06
